N15FM KFAT-KHND
Flight info
| Callsign | N15FM |
|---|---|
| Flight time | 1h 8m |
| Altitude | 19000 |
| Route | DIRECT |
| Aircraft | BE60/L-VGD/C |
Departure
| Time | 2026-04-26 16:47 |
|---|---|
| Airport | Fresno Yosemite International Airport (KFAT) |
Arrival
| Time | 2026-04-26 17:56 |
|---|---|
| Airport | Henderson Executive Airport (KHND) |
| Time | Latitude | Longitude | Altitude | Speed | Heading |
|---|---|---|---|---|---|
| 2026-04-26 16:34 | 36.77853 | -119.72956 | 334 ft | 0 kts | 161° |
| 2026-04-26 16:43 | 36.77848 | -119.72956 | 336 ft | 3 kts | 207° |
| 2026-04-26 16:43 | 36.77860 | -119.72967 | 327 ft | 6 kts | 22° |
| 2026-04-26 16:43 | 36.77918 | -119.72917 | 336 ft | 14 kts | 36° |
| 2026-04-26 16:43 | 36.77991 | -119.72941 | 334 ft | 15 kts | 305° |
| 2026-04-26 16:44 | 36.78061 | -119.73064 | 334 ft | 19 kts | 306° |
| 2026-04-26 16:44 | 36.78143 | -119.73208 | 332 ft | 21 kts | 304° |
| 2026-04-26 16:44 | 36.78228 | -119.73331 | 331 ft | 8 kts | 324° |
| 2026-04-26 16:44 | 36.78263 | -119.73336 | 331 ft | 3 kts | 68° |
| 2026-04-26 16:45 | 36.78263 | -119.73331 | 331 ft | 0 kts | 95° |
| 2026-04-26 16:46 | 36.78262 | -119.73324 | 328 ft | 4 kts | 95° |
| 2026-04-26 16:46 | 36.78277 | -119.73246 | 327 ft | 14 kts | 63° |
| 2026-04-26 16:47 | 36.78237 | -119.73122 | 328 ft | 25 kts | 126° |
| 2026-04-26 16:47 | 36.77992 | -119.72694 | 334 ft | 95 kts | 125° |
| 2026-04-26 16:47 | 36.77532 | -119.71896 | 484 ft | 126 kts | 126° |
| 2026-04-26 16:47 | 36.77009 | -119.70983 | 971 ft | 131 kts | 125° |
| 2026-04-26 16:48 | 36.76483 | -119.70041 | 1497 ft | 133 kts | 123° |
| 2026-04-26 16:48 | 36.76019 | -119.69027 | 1907 ft | 136 kts | 114° |
| 2026-04-26 16:48 | 36.75720 | -119.67913 | 2269 ft | 136 kts | 101° |
| 2026-04-26 16:48 | 36.75545 | -119.66757 | 2605 ft | 138 kts | 99° |
| 2026-04-26 16:49 | 36.75379 | -119.65563 | 2928 ft | 140 kts | 98° |
| 2026-04-26 16:49 | 36.75219 | -119.64364 | 3275 ft | 141 kts | 98° |
| 2026-04-26 16:49 | 36.75052 | -119.63145 | 3576 ft | 144 kts | 99° |
| 2026-04-26 16:49 | 36.74874 | -119.61914 | 3916 ft | 144 kts | 101° |
| 2026-04-26 16:50 | 36.74676 | -119.60687 | 4272 ft | 145 kts | 102° |
| 2026-04-26 16:50 | 36.74463 | -119.59461 | 4637 ft | 145 kts | 102° |
| 2026-04-26 16:50 | 36.74260 | -119.58227 | 4996 ft | 145 kts | 102° |
| 2026-04-26 16:50 | 36.74062 | -119.56982 | 5321 ft | 148 kts | 102° |
| 2026-04-26 16:51 | 36.73863 | -119.55711 | 5635 ft | 150 kts | 102° |
| 2026-04-26 16:51 | 36.73665 | -119.54425 | 5954 ft | 152 kts | 102° |
| 2026-04-26 16:51 | 36.73464 | -119.53125 | 6271 ft | 154 kts | 102° |
| 2026-04-26 16:51 | 36.73263 | -119.51806 | 6658 ft | 156 kts | 101° |
| 2026-04-26 16:52 | 36.73062 | -119.50491 | 7044 ft | 157 kts | 102° |
| 2026-04-26 16:52 | 36.72923 | -119.49587 | 7295 ft | 157 kts | 102° |
| 2026-04-26 16:52 | 36.72650 | -119.47805 | 7803 ft | 158 kts | 102° |
| 2026-04-26 16:52 | 36.72442 | -119.46453 | 8183 ft | 159 kts | 102° |
| 2026-04-26 16:53 | 36.72233 | -119.45095 | 8558 ft | 160 kts | 102° |
| 2026-04-26 16:53 | 36.72024 | -119.43731 | 8963 ft | 160 kts | 102° |
| 2026-04-26 16:53 | 36.71814 | -119.42366 | 9364 ft | 160 kts | 102° |
| 2026-04-26 16:53 | 36.71604 | -119.41000 | 9760 ft | 161 kts | 102° |
| 2026-04-26 16:54 | 36.71392 | -119.39628 | 10101 ft | 162 kts | 102° |
| 2026-04-26 16:54 | 36.71179 | -119.38246 | 10385 ft | 163 kts | 102° |
| 2026-04-26 16:54 | 36.70962 | -119.36847 | 10669 ft | 165 kts | 101° |
| 2026-04-26 16:54 | 36.70747 | -119.35458 | 10949 ft | 166 kts | 101° |
| 2026-04-26 16:55 | 36.70528 | -119.34038 | 11255 ft | 168 kts | 101° |
| 2026-04-26 16:55 | 36.70307 | -119.32606 | 11557 ft | 169 kts | 101° |
| 2026-04-26 16:55 | 36.70086 | -119.31163 | 11846 ft | 171 kts | 101° |
| 2026-04-26 16:55 | 36.69860 | -119.29707 | 12144 ft | 172 kts | 101° |
| 2026-04-26 16:56 | 36.69401 | -119.26734 | 12704 ft | 177 kts | 100° |
| 2026-04-26 16:56 | 36.69163 | -119.25214 | 12999 ft | 180 kts | 100° |
| 2026-04-26 16:56 | 36.68920 | -119.23677 | 13302 ft | 182 kts | 99° |
| 2026-04-26 16:57 | 36.68679 | -119.22123 | 13618 ft | 183 kts | 99° |
| 2026-04-26 16:57 | 36.68435 | -119.20556 | 13906 ft | 185 kts | 99° |
| 2026-04-26 16:57 | 36.67938 | -119.17378 | 14470 ft | 187 kts | 99° |
| 2026-04-26 16:58 | 36.67692 | -119.15802 | 14758 ft | 188 kts | 99° |
| 2026-04-26 16:58 | 36.67608 | -119.15263 | 14862 ft | 188 kts | 99° |
| 2026-04-26 16:58 | 36.66937 | -119.10987 | 15649 ft | 190 kts | 99° |
| 2026-04-26 16:59 | 36.66683 | -119.09369 | 15950 ft | 190 kts | 100° |
| 2026-04-26 16:59 | 36.66174 | -119.06118 | 16548 ft | 192 kts | 100° |
| 2026-04-26 17:00 | 36.65664 | -119.02845 | 17192 ft | 193 kts | 100° |
| 2026-04-26 17:00 | 36.65149 | -118.99554 | 17829 ft | 194 kts | 101° |
| 2026-04-26 17:00 | 36.64888 | -118.97922 | 18157 ft | 195 kts | 101° |
| 2026-04-26 17:01 | 36.64624 | -118.96266 | 18459 ft | 195 kts | 101° |
| 2026-04-26 17:01 | 36.64360 | -118.94606 | 18750 ft | 196 kts | 101° |
| 2026-04-26 17:01 | 36.64093 | -118.92929 | 18926 ft | 203 kts | 101° |
| 2026-04-26 17:01 | 36.63808 | -118.91146 | 18960 ft | 217 kts | 101° |
| 2026-04-26 17:02 | 36.63506 | -118.89263 | 18953 ft | 225 kts | 102° |
| 2026-04-26 17:02 | 36.63197 | -118.87342 | 18951 ft | 228 kts | 101° |
| 2026-04-26 17:02 | 36.62887 | -118.85396 | 18950 ft | 230 kts | 101° |
| 2026-04-26 17:02 | 36.62573 | -118.83427 | 18949 ft | 233 kts | 101° |
| 2026-04-26 17:03 | 36.62255 | -118.81440 | 18948 ft | 235 kts | 101° |
| 2026-04-26 17:03 | 36.61934 | -118.79441 | 18945 ft | 235 kts | 101° |
| 2026-04-26 17:03 | 36.61617 | -118.77459 | 18925 ft | 236 kts | 101° |
| 2026-04-26 17:03 | 36.61294 | -118.75449 | 18924 ft | 237 kts | 101° |
| 2026-04-26 17:04 | 36.60971 | -118.73429 | 18929 ft | 239 kts | 101° |
| 2026-04-26 17:04 | 36.60645 | -118.71398 | 18930 ft | 240 kts | 101° |
| 2026-04-26 17:04 | 36.60316 | -118.69350 | 18937 ft | 242 kts | 101° |
| 2026-04-26 17:04 | 36.59987 | -118.67299 | 18922 ft | 242 kts | 101° |
| 2026-04-26 17:05 | 36.59655 | -118.65244 | 18899 ft | 243 kts | 102° |
| 2026-04-26 17:05 | 36.59322 | -118.63187 | 18892 ft | 243 kts | 102° |
| 2026-04-26 17:05 | 36.58989 | -118.61118 | 18910 ft | 244 kts | 102° |
| 2026-04-26 17:05 | 36.58656 | -118.59078 | 18895 ft | 243 kts | 102° |
| 2026-04-26 17:06 | 36.58319 | -118.57006 | 18914 ft | 244 kts | 102° |
| 2026-04-26 17:06 | 36.57985 | -118.54939 | 18919 ft | 244 kts | 102° |
| 2026-04-26 17:06 | 36.57646 | -118.52857 | 18876 ft | 245 kts | 102° |
| 2026-04-26 17:06 | 36.57419 | -118.51482 | 18870 ft | 246 kts | 102° |
| 2026-04-26 17:07 | 36.57080 | -118.49395 | 18870 ft | 246 kts | 102° |
| 2026-04-26 17:07 | 36.56745 | -118.47312 | 18868 ft | 246 kts | 102° |
| 2026-04-26 17:07 | 36.56408 | -118.45231 | 18870 ft | 245 kts | 102° |
| 2026-04-26 17:07 | 36.56071 | -118.43156 | 18870 ft | 245 kts | 102° |
| 2026-04-26 17:08 | 36.55731 | -118.41074 | 18830 ft | 244 kts | 102° |
| 2026-04-26 17:08 | 36.55396 | -118.39022 | 18839 ft | 246 kts | 102° |
| 2026-04-26 17:08 | 36.55054 | -118.36934 | 18849 ft | 246 kts | 102° |
| 2026-04-26 17:08 | 36.54712 | -118.34850 | 18850 ft | 246 kts | 102° |
| 2026-04-26 17:09 | 36.54369 | -118.32765 | 18841 ft | 245 kts | 102° |
| 2026-04-26 17:09 | 36.54143 | -118.31390 | 18838 ft | 244 kts | 102° |
| 2026-04-26 17:09 | 36.53687 | -118.28622 | 18801 ft | 243 kts | 102° |
| 2026-04-26 17:09 | 36.53348 | -118.26563 | 18804 ft | 243 kts | 102° |
| 2026-04-26 17:10 | 36.53010 | -118.24511 | 18808 ft | 242 kts | 103° |
| 2026-04-26 17:10 | 36.52670 | -118.22488 | 18804 ft | 242 kts | 102° |
| 2026-04-26 17:10 | 36.52334 | -118.20447 | 18802 ft | 241 kts | 102° |
| 2026-04-26 17:10 | 36.51999 | -118.18403 | 18774 ft | 240 kts | 102° |
| 2026-04-26 17:11 | 36.51665 | -118.16374 | 18773 ft | 239 kts | 102° |
| 2026-04-26 17:11 | 36.51330 | -118.14354 | 18786 ft | 239 kts | 102° |
| 2026-04-26 17:11 | 36.50997 | -118.12331 | 18791 ft | 239 kts | 102° |
| 2026-04-26 17:11 | 36.50662 | -118.10303 | 18781 ft | 239 kts | 102° |
| 2026-04-26 17:12 | 36.49989 | -118.06261 | 18776 ft | 239 kts | 102° |
| 2026-04-26 17:12 | 36.49652 | -118.04237 | 18773 ft | 239 kts | 103° |
| 2026-04-26 17:13 | 36.48973 | -118.00171 | 18767 ft | 241 kts | 103° |
| 2026-04-26 17:13 | 36.48631 | -117.98132 | 18767 ft | 241 kts | 103° |
| 2026-04-26 17:13 | 36.47951 | -117.94074 | 18777 ft | 241 kts | 103° |
| 2026-04-26 17:14 | 36.47608 | -117.92028 | 18777 ft | 241 kts | 103° |
| 2026-04-26 17:14 | 36.46921 | -117.87938 | 18777 ft | 242 kts | 103° |
| 2026-04-26 17:14 | 36.46577 | -117.85895 | 18776 ft | 242 kts | 103° |
| 2026-04-26 17:15 | 36.45886 | -117.81794 | 18768 ft | 243 kts | 103° |
| 2026-04-26 17:15 | 36.45539 | -117.79740 | 18769 ft | 243 kts | 103° |
| 2026-04-26 17:15 | 36.45190 | -117.77679 | 18770 ft | 244 kts | 103° |
| 2026-04-26 17:16 | 36.44843 | -117.75636 | 18780 ft | 245 kts | 103° |
| 2026-04-26 17:16 | 36.44493 | -117.73566 | 18773 ft | 245 kts | 103° |
| 2026-04-26 17:16 | 36.44142 | -117.71499 | 18771 ft | 244 kts | 103° |
| 2026-04-26 17:16 | 36.43793 | -117.69439 | 18773 ft | 244 kts | 103° |
| 2026-04-26 17:17 | 36.43441 | -117.67368 | 18772 ft | 244 kts | 103° |
| 2026-04-26 17:17 | 36.43091 | -117.65312 | 18766 ft | 243 kts | 103° |
| 2026-04-26 17:17 | 36.42741 | -117.63255 | 18771 ft | 243 kts | 103° |
| 2026-04-26 17:17 | 36.42390 | -117.61201 | 18770 ft | 243 kts | 103° |
| 2026-04-26 17:18 | 36.42044 | -117.59174 | 18774 ft | 243 kts | 103° |
| 2026-04-26 17:18 | 36.41693 | -117.57121 | 18777 ft | 243 kts | 103° |
| 2026-04-26 17:18 | 36.41342 | -117.55061 | 18782 ft | 243 kts | 103° |
| 2026-04-26 17:18 | 36.40991 | -117.53010 | 18784 ft | 243 kts | 103° |
| 2026-04-26 17:19 | 36.40288 | -117.48918 | 18776 ft | 241 kts | 103° |
| 2026-04-26 17:19 | 36.39938 | -117.46880 | 18786 ft | 241 kts | 103° |
| 2026-04-26 17:19 | 36.39587 | -117.44841 | 18786 ft | 242 kts | 103° |
| 2026-04-26 17:20 | 36.39173 | -117.42823 | 18786 ft | 241 kts | 110° |
| 2026-04-26 17:20 | 36.38794 | -117.41527 | 18786 ft | 241 kts | 113° |
| 2026-04-26 17:20 | 36.37935 | -117.38979 | 18788 ft | 241 kts | 115° |
| 2026-04-26 17:20 | 36.37262 | -117.37061 | 18788 ft | 242 kts | 115° |
| 2026-04-26 17:21 | 36.36591 | -117.35137 | 18786 ft | 243 kts | 115° |
| 2026-04-26 17:21 | 36.35926 | -117.33206 | 18787 ft | 243 kts | 115° |
| 2026-04-26 17:21 | 36.35268 | -117.31271 | 18787 ft | 244 kts | 114° |
| 2026-04-26 17:21 | 36.34613 | -117.29328 | 18786 ft | 244 kts | 114° |
| 2026-04-26 17:22 | 36.33960 | -117.27381 | 18785 ft | 245 kts | 114° |
| 2026-04-26 17:22 | 36.33314 | -117.25452 | 18784 ft | 245 kts | 114° |
| 2026-04-26 17:22 | 36.32663 | -117.23501 | 18785 ft | 245 kts | 114° |
| 2026-04-26 17:22 | 36.32012 | -117.21552 | 18780 ft | 245 kts | 114° |
| 2026-04-26 17:23 | 36.31361 | -117.19604 | 18777 ft | 244 kts | 114° |
| 2026-04-26 17:23 | 36.30712 | -117.17662 | 18781 ft | 244 kts | 114° |
| 2026-04-26 17:23 | 36.30062 | -117.15719 | 18788 ft | 244 kts | 114° |
| 2026-04-26 17:23 | 36.29411 | -117.13774 | 18788 ft | 245 kts | 114° |
| 2026-04-26 17:24 | 36.28766 | -117.11847 | 18786 ft | 245 kts | 115° |
| 2026-04-26 17:24 | 36.28108 | -117.09890 | 18781 ft | 246 kts | 115° |
| 2026-04-26 17:24 | 36.27451 | -117.07937 | 18779 ft | 246 kts | 114° |
| 2026-04-26 17:24 | 36.26794 | -117.05983 | 18778 ft | 245 kts | 115° |
| 2026-04-26 17:25 | 36.26138 | -117.04035 | 18763 ft | 244 kts | 115° |
| 2026-04-26 17:25 | 36.25490 | -117.02098 | 18776 ft | 243 kts | 114° |
| 2026-04-26 17:25 | 36.24844 | -117.00171 | 18778 ft | 242 kts | 114° |
| 2026-04-26 17:25 | 36.24197 | -116.98245 | 18773 ft | 241 kts | 114° |
| 2026-04-26 17:26 | 36.23551 | -116.96327 | 18779 ft | 241 kts | 114° |
| 2026-04-26 17:26 | 36.22907 | -116.94409 | 18780 ft | 241 kts | 114° |
| 2026-04-26 17:26 | 36.22262 | -116.92493 | 18780 ft | 241 kts | 114° |
| 2026-04-26 17:26 | 36.21615 | -116.90574 | 18782 ft | 242 kts | 115° |
| 2026-04-26 17:27 | 36.20965 | -116.88652 | 18782 ft | 242 kts | 114° |
| 2026-04-26 17:27 | 36.20316 | -116.86729 | 18780 ft | 242 kts | 114° |
| 2026-04-26 17:27 | 36.19665 | -116.84803 | 18778 ft | 242 kts | 114° |
| 2026-04-26 17:27 | 36.19020 | -116.82897 | 18773 ft | 242 kts | 114° |
| 2026-04-26 17:28 | 36.18367 | -116.80972 | 18774 ft | 242 kts | 114° |
| 2026-04-26 17:28 | 36.17714 | -116.79042 | 18775 ft | 243 kts | 114° |
| 2026-04-26 17:28 | 36.17061 | -116.77115 | 18777 ft | 243 kts | 114° |
| 2026-04-26 17:28 | 36.16404 | -116.75180 | 18785 ft | 244 kts | 114° |
| 2026-04-26 17:29 | 36.15746 | -116.73240 | 18774 ft | 244 kts | 114° |
| 2026-04-26 17:29 | 36.15309 | -116.71955 | 18774 ft | 244 kts | 114° |
| 2026-04-26 17:29 | 36.14427 | -116.69359 | 18776 ft | 245 kts | 114° |
| 2026-04-26 17:29 | 36.13767 | -116.67415 | 18776 ft | 245 kts | 114° |
| 2026-04-26 17:30 | 36.13105 | -116.65470 | 18771 ft | 246 kts | 114° |
| 2026-04-26 17:30 | 36.12443 | -116.63522 | 18768 ft | 245 kts | 114° |
| 2026-04-26 17:30 | 36.11782 | -116.61581 | 18764 ft | 245 kts | 114° |
| 2026-04-26 17:30 | 36.11122 | -116.59645 | 18771 ft | 244 kts | 114° |
| 2026-04-26 17:31 | 36.10463 | -116.57713 | 18773 ft | 243 kts | 114° |
| 2026-04-26 17:31 | 36.09805 | -116.55788 | 18780 ft | 243 kts | 114° |
| 2026-04-26 17:31 | 36.09147 | -116.53860 | 18780 ft | 243 kts | 114° |
| 2026-04-26 17:31 | 36.08496 | -116.51956 | 18784 ft | 244 kts | 114° |
| 2026-04-26 17:32 | 36.07834 | -116.50018 | 18775 ft | 245 kts | 114° |
| 2026-04-26 17:32 | 36.07171 | -116.48082 | 18772 ft | 244 kts | 114° |
| 2026-04-26 17:32 | 36.06509 | -116.46147 | 18773 ft | 244 kts | 114° |
| 2026-04-26 17:32 | 36.05845 | -116.44212 | 18777 ft | 244 kts | 114° |
| 2026-04-26 17:33 | 36.05181 | -116.42279 | 18777 ft | 244 kts | 114° |
| 2026-04-26 17:33 | 36.04518 | -116.40345 | 18775 ft | 244 kts | 114° |
| 2026-04-26 17:33 | 36.03856 | -116.38413 | 18778 ft | 244 kts | 114° |
| 2026-04-26 17:34 | 36.02523 | -116.34545 | 18781 ft | 245 kts | 114° |
| 2026-04-26 17:34 | 36.01857 | -116.32608 | 18776 ft | 245 kts | 114° |
| 2026-04-26 17:34 | 36.01193 | -116.30676 | 18776 ft | 244 kts | 114° |
| 2026-04-26 17:34 | 36.00529 | -116.28743 | 18784 ft | 244 kts | 114° |
| 2026-04-26 17:35 | 35.99866 | -116.26817 | 18787 ft | 244 kts | 114° |
| 2026-04-26 17:35 | 35.99201 | -116.24886 | 18803 ft | 244 kts | 115° |
| 2026-04-26 17:35 | 35.98535 | -116.22954 | 18800 ft | 245 kts | 114° |
| 2026-04-26 17:35 | 35.97873 | -116.21037 | 18801 ft | 245 kts | 115° |
| 2026-04-26 17:36 | 35.97202 | -116.19100 | 18794 ft | 245 kts | 115° |
| 2026-04-26 17:36 | 35.96524 | -116.17139 | 18638 ft | 251 kts | 115° |
| 2026-04-26 17:36 | 35.95832 | -116.15139 | 18440 ft | 255 kts | 114° |
| 2026-04-26 17:36 | 35.95130 | -116.13112 | 18289 ft | 258 kts | 114° |
| 2026-04-26 17:37 | 35.94420 | -116.11062 | 18108 ft | 260 kts | 114° |
| 2026-04-26 17:37 | 35.93705 | -116.09000 | 17859 ft | 263 kts | 114° |
| 2026-04-26 17:37 | 35.92980 | -116.06914 | 17625 ft | 265 kts | 114° |
| 2026-04-26 17:38 | 35.91528 | -116.02733 | 17026 ft | 269 kts | 114° |
| 2026-04-26 17:38 | 35.90788 | -116.00605 | 16731 ft | 270 kts | 114° |
| 2026-04-26 17:38 | 35.90046 | -115.98473 | 16442 ft | 270 kts | 114° |
| 2026-04-26 17:38 | 35.89304 | -115.96344 | 16154 ft | 269 kts | 114° |
| 2026-04-26 17:39 | 35.88565 | -115.94223 | 15871 ft | 269 kts | 114° |
| 2026-04-26 17:39 | 35.87826 | -115.92107 | 15593 ft | 268 kts | 114° |
| 2026-04-26 17:39 | 35.87089 | -115.89993 | 15311 ft | 267 kts | 114° |
| 2026-04-26 17:39 | 35.86355 | -115.87890 | 15042 ft | 266 kts | 114° |
| 2026-04-26 17:40 | 35.85627 | -115.85803 | 14774 ft | 264 kts | 114° |
| 2026-04-26 17:40 | 35.85393 | -115.85131 | 14689 ft | 263 kts | 114° |
| 2026-04-26 17:40 | 35.84199 | -115.81710 | 14257 ft | 259 kts | 113° |
| 2026-04-26 17:40 | 35.83487 | -115.79676 | 13992 ft | 257 kts | 113° |
| 2026-04-26 17:41 | 35.82786 | -115.77669 | 13769 ft | 254 kts | 113° |
| 2026-04-26 17:41 | 35.82087 | -115.75685 | 13542 ft | 251 kts | 115° |
| 2026-04-26 17:41 | 35.81383 | -115.73733 | 13271 ft | 249 kts | 113° |
| 2026-04-26 17:41 | 35.80705 | -115.71782 | 13018 ft | 247 kts | 112° |
| 2026-04-26 17:42 | 35.80037 | -115.69855 | 12818 ft | 243 kts | 112° |
| 2026-04-26 17:42 | 35.79376 | -115.67957 | 12618 ft | 240 kts | 112° |
| 2026-04-26 17:42 | 35.78718 | -115.66076 | 12413 ft | 238 kts | 113° |
| 2026-04-26 17:42 | 35.78057 | -115.64189 | 12184 ft | 240 kts | 113° |
| 2026-04-26 17:43 | 35.77401 | -115.62318 | 12000 ft | 236 kts | 114° |
| 2026-04-26 17:43 | 35.76753 | -115.60480 | 11794 ft | 236 kts | 114° |
| 2026-04-26 17:43 | 35.76101 | -115.58628 | 11600 ft | 236 kts | 114° |
| 2026-04-26 17:43 | 35.75600 | -115.56705 | 11395 ft | 236 kts | 101° |
| 2026-04-26 17:44 | 35.75348 | -115.54719 | 11208 ft | 234 kts | 98° |
| 2026-04-26 17:44 | 35.75072 | -115.52750 | 11030 ft | 231 kts | 100° |
| 2026-04-26 17:44 | 35.74788 | -115.50808 | 10862 ft | 231 kts | 99° |
| 2026-04-26 17:44 | 35.74506 | -115.48867 | 10679 ft | 230 kts | 100° |
| 2026-04-26 17:45 | 35.74229 | -115.46918 | 10501 ft | 231 kts | 99° |
| 2026-04-26 17:45 | 35.73957 | -115.44970 | 10318 ft | 230 kts | 99° |
| 2026-04-26 17:45 | 35.73678 | -115.43029 | 10129 ft | 230 kts | 99° |
| 2026-04-26 17:45 | 35.73405 | -115.41105 | 9965 ft | 227 kts | 99° |
| 2026-04-26 17:46 | 35.73133 | -115.39181 | 9780 ft | 228 kts | 99° |
| 2026-04-26 17:46 | 35.72861 | -115.37253 | 9584 ft | 229 kts | 99° |
| 2026-04-26 17:46 | 35.72588 | -115.35320 | 9400 ft | 229 kts | 100° |
| 2026-04-26 17:46 | 35.72317 | -115.33400 | 9213 ft | 228 kts | 100° |
| 2026-04-26 17:47 | 35.72048 | -115.31513 | 9029 ft | 226 kts | 101° |
| 2026-04-26 17:47 | 35.71956 | -115.30865 | 8957 ft | 227 kts | 101° |
| 2026-04-26 17:47 | 35.71502 | -115.27676 | 8643 ft | 228 kts | 101° |
| 2026-04-26 17:47 | 35.71236 | -115.25786 | 8615 ft | 222 kts | 99° |
| 2026-04-26 17:48 | 35.71324 | -115.23922 | 8603 ft | 217 kts | 70° |
| 2026-04-26 17:48 | 35.72019 | -115.22327 | 8552 ft | 212 kts | 50° |
| 2026-04-26 17:48 | 35.72809 | -115.20754 | 8337 ft | 219 kts | 57° |
| 2026-04-26 17:48 | 35.73587 | -115.19130 | 8139 ft | 221 kts | 57° |
| 2026-04-26 17:49 | 35.74383 | -115.17501 | 7938 ft | 223 kts | 56° |
| 2026-04-26 17:49 | 35.75232 | -115.15888 | 7722 ft | 224 kts | 47° |
| 2026-04-26 17:49 | 35.76375 | -115.14625 | 7444 ft | 218 kts | 24° |
| 2026-04-26 17:49 | 35.77751 | -115.13922 | 7133 ft | 212 kts | 8° |
| 2026-04-26 17:50 | 35.79186 | -115.13665 | 6937 ft | 205 kts | 353° |
| 2026-04-26 17:50 | 35.80609 | -115.13681 | 6724 ft | 204 kts | 349° |
| 2026-04-26 17:50 | 35.82033 | -115.13663 | 6522 ft | 206 kts | 353° |
| 2026-04-26 17:50 | 35.83456 | -115.13622 | 6473 ft | 206 kts | 350° |
| 2026-04-26 17:51 | 35.84882 | -115.13675 | 6287 ft | 205 kts | 351° |
| 2026-04-26 17:51 | 35.86318 | -115.13588 | 6114 ft | 208 kts | 354° |
| 2026-04-26 17:51 | 35.87751 | -115.13556 | 5861 ft | 205 kts | 348° |
| 2026-04-26 17:51 | 35.89176 | -115.13533 | 5703 ft | 205 kts | 358° |
| 2026-04-26 17:52 | 35.90573 | -115.13141 | 5500 ft | 207 kts | 5° |
| 2026-04-26 17:52 | 35.91948 | -115.12717 | 5375 ft | 200 kts | 8° |
| 2026-04-26 17:52 | 35.93266 | -115.12299 | 5139 ft | 188 kts | 5° |
| 2026-04-26 17:52 | 35.94472 | -115.11827 | 4838 ft | 177 kts | 12° |
| 2026-04-26 17:53 | 35.95589 | -115.11277 | 4576 ft | 167 kts | 15° |
| 2026-04-26 17:53 | 35.96632 | -115.10762 | 4364 ft | 155 kts | 12° |
| 2026-04-26 17:53 | 35.97635 | -115.10350 | 4143 ft | 152 kts | 6° |
| 2026-04-26 17:54 | 35.99642 | -115.09680 | 3764 ft | 142 kts | 345° |
| 2026-04-26 17:54 | 36.00398 | -115.10186 | 3612 ft | 116 kts | 293° |
| 2026-04-26 17:54 | 36.00627 | -115.11075 | 3459 ft | 106 kts | 270° |
| 2026-04-26 17:54 | 36.00661 | -115.11955 | 3349 ft | 100 kts | 251° |
| 2026-04-26 17:55 | 36.00273 | -115.12660 | 3135 ft | 99 kts | 226° |
| 2026-04-26 17:55 | 35.99886 | -115.12949 | 2972 ft | 99 kts | 208° |
| 2026-04-26 17:55 | 35.98984 | -115.13241 | 2617 ft | 101 kts | 194° |
| 2026-04-26 17:55 | 35.98533 | -115.13291 | 2515 ft | 97 kts | 187° |
| 2026-04-26 17:56 | 35.97909 | -115.13296 | 2419 ft | 75 kts | 189° |
| 2026-04-26 17:56 | 35.97308 | -115.13308 | 2452 ft | 20 kts | 177° |
| 2026-04-26 17:57 | 35.97138 | -115.13309 | 2456 ft | 8 kts | 182° |
| 2026-04-26 17:57 | 35.97095 | -115.13326 | 2462 ft | 5 kts | 239° |
| 2026-04-26 17:57 | 35.97090 | -115.13400 | 2452 ft | 15 kts | 269° |
| 2026-04-26 17:57 | 35.97091 | -115.13553 | 2444 ft | 18 kts | 271° |
| 2026-04-26 17:58 | 35.96926 | -115.13649 | 2451 ft | 8 kts | 179° |
| 2026-04-26 17:59 | 35.96817 | -115.13651 | 2460 ft | 9 kts | 179° |
| 2026-04-26 17:59 | 35.96743 | -115.13652 | 2465 ft | 12 kts | 187° |
| 2026-04-26 17:59 | 35.96724 | -115.13710 | 2466 ft | 11 kts | 274° |
| 2026-04-26 17:59 | 35.96711 | -115.13760 | 2466 ft | 2 kts | 183° |
| 2026-04-26 18:00 | 35.96708 | -115.13761 | 2466 ft | 0 kts | 183° |